Pagrindinis puslapis
METAR-TAF:

METAR-TAF

Oro uostai :

Saint-Pierre, Reunjonas

platuma: 21-20S, ilguma: 055-29E, Aukštis: 52 m

Dabartinis oras

Ataskaita buvo paskelbta 15 minutes, ne 15:00 UTC
Vėjas 2 kt nuo kintamojo kryptimis
Temperatūra 22°C
Drėgmė 69%
Slėgis 1018 hPa
Matomumas 10 km arba daugiau
Su prošvaistėmis ne aukštis 4100 ft

METAR: FMEP 171500Z AUTO VRB02KT 9999 BKN041 22/16 Q1018 NOSIG

Laikas: 19:15 (15:15 UTC)

Prognozė

Ataskaita buvo paskelbta 4 valandos ir 15 minutes, ne 11:00 UTC
Prognozė galioja nuo 17 metu 12 UTC su 17 metu 21 UTC
Vėjas 10 kt iš Pietryčių
Matomumas 10 km arba daugiau
Mažai debesys ne aukštis 4000 ft
Laikinai
nuo 17 metu 16 UTC su 17 metu 18 UTC
Vėjas 5 kt iš Šiaurės Rytų

TAF: FMEP 171100Z 1712/1721 14010KT 9999 FEW040 TEMPO 1716/1718 04005KT

Orai ataskaitas ir orų prognozės (METAR, TAF).

turimą stotys yra geltonos ir raudonos taškus žemėlapyje.

Perkelti pele per norėdami pamatyti stoties vardą.

Tada spustelėkite, norėdami matyti oro stebėjimo ir prognozės.

Norėdami pakeisti žemėlapį: spustelėkite ant žalios mygtukų su juodo kryžiaus žemyn,; žalią mygtuką su brūkšneliu, jei norite nutolinti; arba žalių rodyklių gretimoms žemėlapius.


METAR-TAF: